Time;durP1;ratioP1;P1;durP2;ratioP2;P2;SDS_P1;SDS_P2;PMS_P1;PMS_P2;Temp;Humidity;BMP_temperature;BMP_pressure;BME280_temperature;BME280_humidity;BME280_pressure;Samples;Min_cycle;Max_cycle;Signal;HPM_P1;HPM_P2
2022/01/08 00:00:31;;;;;;;;;;;;;;;7.79;80.14;100105.47;7365281;19;19934;-60
2022/01/08 00:02:56;;;;;;;;;;;;;;;7.81;80.29;100095.91;7367163;19;19998;-59
2022/01/08 00:05:22;;;;;;;;;;;;;;;7.85;80.34;100097.53;7368708;19;19915;-59
2022/01/08 00:07:48;;;;;;;;;;;;;;;7.88;80.48;100094.88;7355225;19;19911;-59
2022/01/08 00:10:13;;;;;;;;;;;;;;;7.91;80.36;100076.63;7357222;19;19918;-58
2022/01/08 00:12:39;;;;;;;;;;;;;;;7.65;80.21;100029.53;7365515;19;19929;-57
2022/01/08 00:15:06;;;;;;;;;;;;;;;7.96;80.14;100072.19;7352060;19;19939;-60
2022/01/08 00:17:31;;;;;;;;;;;;;;;7.99;80.25;100071.25;7363212;19;20000;-58
2022/01/08 00:19:56;;;;;;;;;;;;;;;8.01;80.07;100059.94;7365828;19;20658;-57
2022/01/08 00:22:21;;;;;;;;;;;;;;;8.03;80.32;100052.94;7361635;19;19922;-58
2022/01/08 00:24:47;;;;;;;;;;;;;;;8.05;80.12;100045.97;7362395;19;19917;-57
2022/01/08 00:27:12;;;;;;;;;;;;;;;8.04;80.37;100025.19;7364236;19;19914;-58
2022/01/08 00:29:39;;;;;;;;;;;;;;;8.09;80.36;100036.34;7366324;19;19918;-59
2022/01/08 00:32:05;;;;;;;;;;;;;;;8.10;80.41;100026.81;7363255;19;19986;-57
2022/01/08 00:34:30;;;;;;;;;;;;;;;8.14;80.72;100023.25;7366761;19;19956;-59
2022/01/08 00:36:56;;;;;;;;;;;;;;;8.15;80.17;100014.53;7366434;19;19915;-57
2022/01/08 00:39:21;;;;;;;;;;;;;;;8.16;80.24;99996.34;7362848;19;19913;-58
2022/01/08 00:41:46;;;;;;;;;;;;;;;8.18;80.48;99989.34;7362745;19;19927;-59
2022/01/08 00:44:16;;;;;;;;;;;;;;;8.20;80.42;99968.47;7363580;19;19937;-58
2022/01/08 00:46:41;;;;;;;;;;;;;;;8.20;79.98;99971.06;7363972;19;19926;-57
2022/01/08 00:49:06;;;;;;;;;;;;;;;8.21;80.35;99957.19;7361527;19;20024;-59
2022/01/08 00:51:31;;;;;;;;;;;;;;;8.24;80.42;99959.72;7363069;19;20377;-58
2022/01/08 00:53:57;;;;;;;;;;;;;;;8.24;80.14;99951.91;7363016;19;19922;-58
2022/01/08 00:56:22;;;;;;;;;;;;;;;8.25;80.26;99941.47;7360694;19;19926;-58
2022/01/08 00:58:47;;;;;;;;;;;;;;;8.26;80.55;99930.19;7364745;19;20004;-58
2022/01/08 01:01:13;;;;;;;;;;;;;;;8.28;80.37;99923.19;7362409;19;19934;-58
2022/01/08 01:03:38;;;;;;;;;;;;;;;8.30;80.23;99930.94;7361722;19;19914;-58
2022/01/08 01:06:06;;;;;;;;;;;;;;;8.32;80.64;99919.63;7358948;19;19954;-59
2022/01/08 01:08:32;;;;;;;;;;;;;;;8.34;80.06;99906.56;7353229;19;19928;-58
2022/01/08 01:10:57;;;;;;;;;;;;;;;8.35;80.41;99902.22;7358599;19;19910;-59
2022/01/08 01:13:22;;;;;;;;;;;;;;;8.36;80.36;99891.78;7360670;19;19935;-60
2022/01/08 01:15:48;;;;;;;;;;;;;;;8.37;80.44;99883.13;7358272;19;19923;-58
2022/01/08 01:18:13;;;;;;;;;;;;;;;8.38;80.06;99886.56;7360777;19;19930;-57
2022/01/08 01:20:38;;;;;;;;;;;;;;;8.38;80.25;99871.81;7359774;19;19915;-58
2022/01/08 01:23:18;;;;;;;;;;;;;;;8.40;80.22;99869.16;7349307;19;20251;-59
2022/01/08 01:25:54;;;;;;;;;;;;;;;8.39;80.21;99863.09;7330698;19;19932;-59
2022/01/08 01:47:01;;;;;;;;;;;;;;;8.48;80.73;99810.81;7351127;19;19922;-60
2022/01/08 01:49:27;;;;;;;;;;;;;;;8.51;80.44;99800.31;7355829;19;20501;-58
2022/01/08 01:51:53;;;;;;;;;;;;;;;8.51;80.77;99795.09;7359812;19;19952;-59
2022/01/08 01:54:18;;;;;;;;;;;;;;;8.53;80.46;99776.88;7362511;19;19936;-60
2022/01/08 01:56:44;;;;;;;;;;;;;;;8.54;80.51;99776.81;7361264;19;19913;-58
2022/01/08 01:59:09;;;;;;;;;;;;;;;8.56;80.44;99756.78;7362160;19;20740;-57
2022/01/08 02:01:34;;;;;;;;;;;;;;;8.57;80.77;99703.03;7361387;19;19919;-58
2022/01/08 02:04:00;;;;;;;;;;;;;;;8.58;80.73;99736.78;7360447;19;20011;-60
2022/01/08 02:06:25;;;;;;;;;;;;;;;8.60;80.75;99730.69;7359927;19;19922;-59
2022/01/08 02:08:50;;;;;;;;;;;;;;;8.61;80.49;99711.56;7359660;19;19922;-58
2022/01/08 02:11:18;;;;;;;;;;;;;;;8.62;80.43;99721.06;7358877;19;20254;-59
2022/01/08 02:13:43;;;;;;;;;;;;;;;8.62;80.94;99708.06;7360719;19;19926;-57
2022/01/08 02:16:16;;;;;;;;;;;;;;;8.64;80.36;99688.06;7353419;19;19927;-59
2022/01/08 02:18:42;;;;;;;;;;;;;;;8.66;80.51;99678.44;7357298;19;19951;-57
2022/01/08 02:21:07;;;;;;;;;;;;;;;8.68;80.49;99650.63;7364000;19;19994;-58
2022/01/08 02:23:32;;;;;;;;;;;;;;;8.70;80.68;99643.63;7361247;19;19922;-60
2022/01/08 02:26:04;;;;;;;;;;;;;;;8.72;80.79;99637.47;7362363;19;19927;-59
2022/01/08 02:28:29;;;;;;;;;;;;;;;8.74;80.89;99621.81;7362188;19;19998;-58
2022/01/08 02:30:55;;;;;;;;;;;;;;;8.77;80.65;99629.53;7358402;19;19994;-58
2022/01/08 02:33:24;;;;;;;;;;;;;;;8.75;80.58;99605.28;7362524;19;19925;-60
2022/01/08 02:35:49;;;;;;;;;;;;;;;8.82;80.68;99606.81;7358534;19;20622;-59
2022/01/08 02:38:14;;;;;;;;;;;;;;;8.85;80.76;99606.69;7362292;19;19919;-59
2022/01/08 02:40:49;;;;;;;;;;;;;;;8.87;80.72;99610.09;7360413;19;19938;-59
2022/01/08 02:43:14;;;;;;;;;;;;;;;8.90;80.63;99599.56;7361907;19;19918;-59
2022/01/08 02:45:40;;;;;;;;;;;;;;;8.92;80.32;99586.50;7330857;19;19918;-58
2022/01/08 02:48:06;;;;;;;;;;;;;;;8.94;80.23;99579.50;7341197;19;19943;-60
2022/01/08 02:50:31;;;;;;;;;;;;;;;8.97;80.18;99564.63;7332302;19;19922;-58
2022/01/08 02:52:56;;;;;;;;;;;;;;;9.00;80.34;99554.09;7351673;19;20054;-58
2022/01/08 02:55:22;;;;;;;;;;;;;;;9.02;80.52;99544.50;7359691;19;19938;-58
2022/01/08 02:57:47;;;;;;;;;;;;;;;9.05;80.26;99525.28;7352599;19;19921;-60
2022/01/08 03:00:14;;;;;;;;;;;;;;;9.06;80.13;99514.81;7360398;19;20252;-58
2022/01/08 03:02:43;;;;;;;;;;;;;;;9.10;80.45;99519.00;7363911;19;19918;-59
2022/01/08 03:05:11;;;;;;;;;;;;;;;9.14;80.30;99521.53;7351918;19;19921;-59
2022/01/08 03:07:37;;;;;;;;;;;;;;;9.18;80.00;99515.31;7354960;19;19919;-61
2022/01/08 03:10:02;;;;;;;;;;;;;;;9.20;80.31;99510.88;7362402;19;19915;-60
2022/01/08 03:12:30;;;;;;;;;;;;;;;9.22;80.06;99506.44;7362277;19;19938;-60
2022/01/08 03:14:55;;;;;;;;;;;;;;;9.26;79.90;99493.25;7370369;19;19918;-59
2022/01/08 03:17:21;;;;;;;;;;;;;;;9.28;79.76;99488.00;7368586;19;19922;-58
2022/01/08 03:19:46;;;;;;;;;;;;;;;9.31;79.89;99469.66;7367756;19;20481;-59
2022/01/08 03:22:12;;;;;;;;;;;;;;;9.33;79.77;99473.91;7362470;19;19930;-60
2022/01/08 03:24:39;;;;;;;;;;;;;;;9.35;79.92;99453.84;7354924;19;19919;-60
2022/01/08 03:27:05;;;;;;;;;;;;;;;9.38;80.00;99446.81;7362277;19;19942;-59
2022/01/08 03:29:30;;;;;;;;;;;;;;;9.40;79.66;99453.69;7369836;19;20619;-59
2022/01/08 03:31:56;;;;;;;;;;;;;;;9.41;79.38;99437.13;7363893;19;19918;-58
2022/01/08 03:34:21;;;;;;;;;;;;;;;9.43;79.54;99437.94;7369176;19;19917;-58
2022/01/08 03:36:46;;;;;;;;;;;;;;;9.46;79.48;99416.94;7365697;19;19914;-60
2022/01/08 03:39:12;;;;;;;;;;;;;;;9.46;79.61;99427.38;7372054;19;19931;-58
2022/01/08 03:41:42;;;;;;;;;;;;;;;9.48;79.30;99394.31;7364345;19;19931;-60
2022/01/08 03:44:08;;;;;;;;;;;;;;;9.49;79.63;99369.94;7342067;19;19935;-59
2022/01/08 03:46:35;;;;;;;;;;;;;;;9.53;79.79;99381.94;7369345;19;19915;-60
2022/01/08 03:51:27;;;;;;;;;;;;;;;9.59;79.68;99381.69;7360376;19;19935;-60
2022/01/08 03:53:52;;;;;;;;;;;;;;;9.62;79.70;99368.53;7364747;19;19919;-60
2022/01/08 03:56:17;;;;;;;;;;;;;;;9.64;79.62;99346.78;7365400;19;20273;-58
2022/01/08 03:58:43;;;;;;;;;;;;;;;9.66;79.66;99342.34;7365206;19;19915;-58
2022/01/08 04:01:08;;;;;;;;;;;;;;;9.68;79.18;99327.47;7366827;19;19930;-60
2022/01/08 04:03:33;;;;;;;;;;;;;;;9.71;79.54;99338.66;7366286;19;19918;-58
2022/01/08 04:05:58;;;;;;;;;;;;;;;9.74;79.39;99301.19;7364255;19;19943;-59
2022/01/08 04:08:24;;;;;;;;;;;;;;;9.76;79.21;99301.97;7365531;19;19915;-58
2022/01/08 04:10:49;;;;;;;;;;;;;;;9.78;79.40;99293.19;7343878;19;19938;-59
2022/01/08 04:13:20;;;;;;;;;;;;;;;9.83;79.54;99279.91;7335156;19;19919;-58
2022/01/08 04:15:47;;;;;;;;;;;;;;;9.85;79.30;99272.91;7363270;19;19986;-60
2022/01/08 04:18:12;;;;;;;;;;;;;;;9.86;79.23;99274.59;7365925;19;19915;-60
2022/01/08 04:21:08;;;;;;;;;;;;;;;9.89;79.35;99256.22;7363708;19;19937;-59
2022/01/08 04:23:34;;;;;;;;;;;;;;;9.90;79.13;99250.09;7264552;19;2004051;-61
2022/01/08 04:25:59;;;;;;;;;;;;;;;9.91;79.21;99236.13;7369809;19;20358;-58
2022/01/08 04:28:25;;;;;;;;;;;;;;;9.91;78.79;99233.53;7368811;19;19935;-58
2022/01/08 04:30:50;;;;;;;;;;;;;;;9.90;79.08;99273.56;7331857;19;19935;-59
2022/01/08 04:33:16;;;;;;;;;;;;;;;9.89;79.23;99217.09;7360748;19;20236;-59
2022/01/08 04:35:41;;;;;;;;;;;;;;;9.89;78.84;99201.47;7369867;19;19923;-58
2022/01/08 04:38:06;;;;;;;;;;;;;;;9.89;79.35;99204.06;7368781;19;19937;-59
2022/01/08 04:40:32;;;;;;;;;;;;;;;9.89;79.02;99222.31;7361112;19;20349;-60
2022/01/08 04:42:58;;;;;;;;;;;;;;;9.88;79.17;99181.50;7366206;19;19926;-58
2022/01/08 04:45:28;;;;;;;;;;;;;;;9.87;79.47;99151.13;7366158;19;21005;-60
2022/01/08 04:47:53;;;;;;;;;;;;;;;9.85;79.42;99153.81;7364951;19;19953;-59
2022/01/08 04:50:19;;;;;;;;;;;;;;;9.84;79.50;99167.78;7367642;19;20334;-58
2022/01/08 04:52:44;;;;;;;;;;;;;;;9.84;79.34;99157.34;7354889;19;19932;-60
2022/01/08 04:55:09;;;;;;;;;;;;;;;9.84;79.67;99152.13;7367474;19;19915;-57
2022/01/08 04:57:35;;;;;;;;;;;;;;;9.85;79.45;99148.59;7369059;19;19911;-58
2022/01/08 05:00:00;;;;;;;;;;;;;;;9.85;79.86;99159.03;7369607;19;19977;-58
2022/01/08 05:02:25;;;;;;;;;;;;;;;9.88;79.70;99126.75;7367228;19;19956;-60
2022/01/08 05:04:51;;;;;;;;;;;;;;;9.89;80.03;99133.69;7333055;19;19918;-58
2022/01/08 05:07:16;;;;;;;;;;;;;;;9.89;80.05;99120.63;7339247;19;19929;-59
2022/01/08 05:09:42;;;;;;;;;;;;;;;9.91;80.03;99118.78;7360503;19;19986;-58
2022/01/08 05:12:07;;;;;;;;;;;;;;;9.88;80.26;99090.25;7363572;19;20347;-59
2022/01/08 05:14:33;;;;;;;;;;;;;;;9.94;80.12;99105.63;7362377;19;19923;-60
2022/01/08 05:17:01;;;;;;;;;;;;;;;9.95;80.29;99107.31;7360943;19;19926;-59
2022/01/08 05:19:39;;;;;;;;;;;;;;;9.97;79.99;99104.63;7364497;19;19945;-58
2022/01/08 05:22:06;;;;;;;;;;;;;;;9.99;80.45;99087.16;7367200;19;19929;-58
2022/01/08 05:24:32;;;;;;;;;;;;;;;10.02;80.20;99080.03;7367089;19;19917;-59
2022/01/08 05:26:57;;;;;;;;;;;;;;;10.03;80.09;99058.25;7366712;19;19919;-58
2022/01/08 05:29:22;;;;;;;;;;;;;;;10.04;80.26;99065.19;7369111;19;19926;-59
2022/01/08 05:31:48;;;;;;;;;;;;;;;10.05;80.08;99056.44;7367472;19;19918;-59
2022/01/08 05:34:13;;;;;;;;;;;;;;;10.07;80.19;99064.16;7364184;19;20021;-59
2022/01/08 05:36:39;;;;;;;;;;;;;;;10.07;80.38;99051.97;7365387;19;19925;-58
2022/01/08 05:39:04;;;;;;;;;;;;;;;10.07;80.15;99049.38;7361684;19;19914;-60
2022/01/08 05:41:30;;;;;;;;;;;;;;;10.09;80.66;99052.75;7341210;19;20341;-58
2022/01/08 05:43:55;;;;;;;;;;;;;;;10.10;80.28;99019.69;7353534;19;20971;-59
2022/01/08 05:46:20;;;;;;;;;;;;;;;10.10;80.29;99017.94;7368408;19;19922;-60
2022/01/08 05:48:45;;;;;;;;;;;;;;;10.10;80.57;99038.81;7366263;19;19915;-58
2022/01/08 05:51:11;;;;;;;;;;;;;;;10.12;80.77;98994.38;7366267;19;19911;-58
2022/01/08 05:53:36;;;;;;;;;;;;;;;10.13;80.73;99015.16;7368607;19;19914;-59
2022/01/08 05:56:04;;;;;;;;;;;;;;;10.14;80.60;98982.97;7362832;19;19917;-60
2022/01/08 05:58:30;;;;;;;;;;;;;;;10.17;80.40;98968.06;7367906;19;19915;-57
2022/01/08 06:00:55;;;;;;;;;;;;;;;10.18;80.33;98988.03;7363572;19;19919;-58
2022/01/08 06:03:21;;;;;;;;;;;;;;;10.18;80.84;98972.38;7360824;19;20244;-58
2022/01/08 06:05:47;;;;;;;;;;;;;;;10.20;80.88;98952.28;7359489;19;19982;-59
2022/01/08 06:08:12;;;;;;;;;;;;;;;10.21;80.59;98947.00;7367123;19;19911;-59
2022/01/08 06:10:37;;;;;;;;;;;;;;;10.18;80.94;98935.84;7365880;19;19915;-58
2022/01/08 06:13:04;;;;;;;;;;;;;;;10.24;81.06;98941.66;7363513;19;19919;-58
2022/01/08 06:15:29;;;;;;;;;;;;;;;10.26;81.05;98934.59;7365711;19;20029;-58
2022/01/08 06:17:54;;;;;;;;;;;;;;;10.29;80.76;98912.72;7366577;19;19978;-58
2022/01/08 06:20:19;;;;;;;;;;;;;;;10.31;80.81;98911.72;7359791;19;19914;-59
2022/01/08 06:22:45;;;;;;;;;;;;;;;10.33;80.83;98909.88;7364591;19;19919;-59
2022/01/08 06:25:10;;;;;;;;;;;;;;;10.35;80.80;98888.94;7363992;19;19919;-59
2022/01/08 06:27:35;;;;;;;;;;;;;;;10.37;81.22;98887.94;7366270;19;20650;-59
2022/01/08 06:30:03;;;;;;;;;;;;;;;10.39;80.84;98877.41;7363385;19;19922;-58
2022/01/08 06:32:28;;;;;;;;;;;;;;;10.42;80.79;98865.97;7366820;19;19935;-59
2022/01/08 06:34:53;;;;;;;;;;;;;;;10.43;81.01;98858.06;7365119;19;19939;-59
2022/01/08 06:37:18;;;;;;;;;;;;;;;10.44;81.14;98838.91;7365399;19;19930;-59
2022/01/08 06:39:44;;;;;;;;;;;;;;;10.45;80.98;98856.25;7362882;19;20375;-60
2022/01/08 06:42:18;;;;;;;;;;;;;;;10.48;81.04;98860.44;7360933;19;19951;-59
2022/01/08 06:44:44;;;;;;;;;;;;;;;10.48;80.82;98850.84;7356610;19;19914;-59
2022/01/08 06:47:09;;;;;;;;;;;;;;;10.50;81.08;98842.97;7360603;19;19942;-60
2022/01/08 06:49:34;;;;;;;;;;;;;;;10.51;81.23;98844.63;7362622;19;19925;-59
2022/01/08 06:52:00;;;;;;;;;;;;;;;10.52;81.27;98841.94;7360108;19;19926;-58
2022/01/08 06:54:25;;;;;;;;;;;;;;;10.54;81.16;98850.56;7362108;19;20096;-60
2022/01/08 06:56:50;;;;;;;;;;;;;;;10.57;81.17;98860.81;7359401;19;19950;-59
2022/01/08 06:59:15;;;;;;;;;;;;;;;10.58;80.99;98877.31;7366432;19;19934;-58
2022/01/08 07:01:41;;;;;;;;;;;;;;;10.60;81.43;98859.81;7364930;19;19922;-58
2022/01/08 07:04:06;;;;;;;;;;;;;;;10.62;81.36;98858.81;7357297;19;19938;-60
2022/01/08 07:06:31;;;;;;;;;;;;;;;10.63;81.51;98863.09;7363279;19;19926;-58
2022/01/08 07:08:57;;;;;;;;;;;;;;;10.64;81.20;98849.16;7364772;19;20532;-61
2022/01/08 07:11:22;;;;;;;;;;;;;;;10.66;81.34;98854.28;7360559;19;19915;-58
2022/01/08 07:13:47;;;;;;;;;;;;;;;10.67;81.26;98861.19;7359689;19;19915;-59
2022/01/08 07:16:12;;;;;;;;;;;;;;;10.69;81.19;98853.25;7363048;19;19921;-58
2022/01/08 07:18:38;;;;;;;;;;;;;;;10.67;80.96;98852.50;7345406;19;19915;-60
2022/01/08 07:21:03;;;;;;;;;;;;;;;10.68;81.29;98856.81;7359271;19;19920;-58
2022/01/08 07:23:29;;;;;;;;;;;;;;;10.69;80.97;98845.44;7352471;19;19918;-58
2022/01/08 07:25:54;;;;;;;;;;;;;;;10.68;81.04;98833.31;7363065;19;19918;-57
2022/01/08 07:28:19;;;;;;;;;;;;;;;10.66;80.62;98833.41;7356679;19;19914;-59
2022/01/08 07:30:45;;;;;;;;;;;;;;;10.63;80.62;98834.38;7340429;19;19918;-58
2022/01/08 07:33:11;;;;;;;;;;;;;;;10.60;80.28;98852.84;7360108;19;19939;-61
2022/01/08 07:35:36;;;;;;;;;;;;;;;10.58;80.32;98846.00;7358683;19;19922;-58
2022/01/08 07:38:02;;;;;;;;;;;;;;;10.56;80.70;98853.91;7359370;19;19939;-59
2022/01/08 07:40:27;;;;;;;;;;;;;;;10.54;80.47;98862.72;7360976;19;22331;-60
2022/01/08 07:42:53;;;;;;;;;;;;;;;10.44;80.59;98848.47;7346386;19;19930;-58
2022/01/08 07:45:19;;;;;;;;;;;;;;;10.51;80.63;98861.13;7342804;19;20288;-58
2022/01/08 07:47:45;;;;;;;;;;;;;;;10.49;80.49;98869.94;7278118;19;19915;-58
2022/01/08 07:50:11;;;;;;;;;;;;;;;10.47;80.53;98875.25;7355117;19;20263;-58
2022/01/08 07:52:36;;;;;;;;;;;;;;;10.44;80.49;98875.44;7360406;19;19919;-59
2022/01/08 07:55:02;;;;;;;;;;;;;;;10.40;80.43;98889.56;7356898;19;19942;-59
2022/01/08 07:57:27;;;;;;;;;;;;;;;10.37;80.28;98905.34;7353831;19;19925;-59
2022/01/08 07:59:53;;;;;;;;;;;;;;;10.33;80.17;98896.00;7368443;19;20024;-59
2022/01/08 08:02:18;;;;;;;;;;;;;;;10.29;80.34;98881.41;7363948;19;19942;-58
2022/01/08 08:04:43;;;;;;;;;;;;;;;10.25;80.01;98879.91;7370176;19;19921;-61
2022/01/08 08:07:09;;;;;;;;;;;;;;;10.23;80.44;98894.72;7366637;19;20331;-59
2022/01/08 08:09:34;;;;;;;;;;;;;;;10.20;80.17;98916.63;7366373;19;20932;-60
2022/01/08 08:11:59;;;;;;;;;;;;;;;10.19;80.50;98927.97;7366063;19;19926;-59
2022/01/08 08:14:25;;;;;;;;;;;;;;;10.18;80.18;98946.28;7343475;19;19911;-58
2022/01/08 08:16:50;;;;;;;;;;;;;;;10.17;80.32;98949.81;7366897;19;20626;-59
2022/01/08 08:19:16;;;;;;;;;;;;;;;10.13;79.87;98942.13;7364932;19;19919;-59
2022/01/08 08:21:42;;;;;;;;;;;;;;;10.09;79.75;98963.25;7358798;19;19947;-59
2022/01/08 08:24:07;;;;;;;;;;;;;;;10.02;78.91;98983.53;7361671;19;19935;-59
2022/01/08 08:26:33;;;;;;;;;;;;;;;9.91;78.95;98975.38;7367202;19;19926;-58
2022/01/08 08:28:58;;;;;;;;;;;;;;;9.78;78.42;98979.47;7369731;19;20566;-58
2022/01/08 08:31:23;;;;;;;;;;;;;;;9.64;78.41;98961.06;7366927;19;19953;-58
2022/01/08 08:33:49;;;;;;;;;;;;;;;9.49;78.51;98947.81;7368684;19;19918;-58
2022/01/08 08:36:14;;;;;;;;;;;;;;;9.35;78.29;98937.19;7366179;19;19941;-59
2022/01/08 08:38:39;;;;;;;;;;;;;;;9.23;78.38;98919.53;7366676;19;19947;-58
2022/01/08 08:41:05;;;;;;;;;;;;;;;9.10;78.00;98891.44;7365863;19;19951;-58
2022/01/08 08:43:30;;;;;;;;;;;;;;;9.00;78.22;98892.75;7360169;19;19935;-60
2022/01/08 08:45:55;;;;;;;;;;;;;;;8.90;78.09;98875.88;7367602;19;19921;-61
2022/01/08 08:48:21;;;;;;;;;;;;;;;8.81;78.28;98855.44;7364375;19;19930;-58
2022/01/08 08:50:46;;;;;;;;;;;;;;;8.73;78.67;98853.22;7365720;19;19928;-61
2022/01/08 08:53:11;;;;;;;;;;;;;;;8.66;78.44;98861.34;7364646;19;19914;-60
2022/01/08 08:55:36;;;;;;;;;;;;;;;8.59;78.72;98858.19;7365597;19;19978;-61
2022/01/08 08:58:02;;;;;;;;;;;;;;;8.54;78.95;98845.38;7368429;19;20357;-59
2022/01/08 09:00:27;;;;;;;;;;;;;;;8.49;79.13;98829.13;7365141;19;19939;-60
2022/01/08 09:02:52;;;;;;;;;;;;;;;8.47;79.44;98820.53;7365555;19;19927;-60
2022/01/08 09:05:18;;;;;;;;;;;;;;;8.47;80.07;98812.75;7365308;19;19919;-59
2022/01/08 09:07:43;;;;;;;;;;;;;;;8.47;79.86;98806.69;7367271;19;19923;-60
2022/01/08 09:10:09;;;;;;;;;;;;;;;8.48;80.38;98810.97;7361435;19;20035;-59
2022/01/08 09:12:35;;;;;;;;;;;;;;;8.50;80.59;98810.00;7363190;19;19975;-59
2022/01/08 09:15:01;;;;;;;;;;;;;;;8.51;80.42;98816.88;7365436;19;19911;-58
2022/01/08 09:17:26;;;;;;;;;;;;;;;8.53;80.61;98811.63;7364970;19;19926;-60
2022/01/08 09:19:52;;;;;;;;;;;;;;;8.55;80.65;98809.78;7366235;19;19927;-59
2022/01/08 09:22:18;;;;;;;;;;;;;;;8.57;80.72;98815.78;7355568;19;19931;-59
2022/01/08 09:24:43;;;;;;;;;;;;;;;8.58;80.61;98827.88;7365927;19;19954;-59
2022/01/08 09:27:08;;;;;;;;;;;;;;;8.60;80.71;98835.59;7366157;19;19919;-58
2022/01/08 09:29:34;;;;;;;;;;;;;;;8.61;81.07;98842.50;7363941;19;19971;-59
2022/01/08 09:31:59;;;;;;;;;;;;;;;8.63;80.73;98851.09;7358775;19;19975;-58
2022/01/08 09:34:25;;;;;;;;;;;;;;;8.63;80.94;98848.47;7361554;19;19918;-60
2022/01/08 09:36:50;;;;;;;;;;;;;;;8.65;80.68;98854.44;7367876;19;19927;-59
2022/01/08 09:39:16;;;;;;;;;;;;;;;8.65;81.05;98857.06;7368426;19;20368;-59
2022/01/08 09:41:42;;;;;;;;;;;;;;;8.67;81.00;98863.03;7355943;19;19919;-58
2022/01/08 09:44:08;;;;;;;;;;;;;;;8.67;80.80;98868.22;7324840;19;19936;-59
2022/01/08 09:46:33;;;;;;;;;;;;;;;8.67;80.97;98878.63;7358267;19;19914;-58
2022/01/08 09:48:58;;;;;;;;;;;;;;;8.69;80.67;98871.63;7360471;19;19938;-59
2022/01/08 09:51:26;;;;;;;;;;;;;;;8.69;81.15;98866.41;7361289;19;20249;-59
2022/01/08 09:53:51;;;;;;;;;;;;;;;8.71;80.86;98859.38;7362182;19;20017;-59
2022/01/08 09:56:16;;;;;;;;;;;;;;;8.71;80.86;98848.97;7367195;19;19922;-59
2022/01/08 09:58:42;;;;;;;;;;;;;;;8.73;81.20;98842.81;7356651;19;19923;-59
2022/01/08 10:01:21;;;;;;;;;;;;;;;8.74;81.17;98849.69;7366642;19;19939;-61
2022/01/08 10:03:46;;;;;;;;;;;;;;;8.77;81.20;98848.72;7338242;19;20505;-59
2022/01/08 10:06:12;;;;;;;;;;;;;;;8.78;81.33;98850.41;7355760;19;19918;-58
2022/01/08 10:08:41;;;;;;;;;;;;;;;8.80;81.15;98853.75;7359318;19;19930;-60
2022/01/08 10:11:07;;;;;;;;;;;;;;;8.80;81.23;98862.41;7354807;19;19919;-60
2022/01/08 10:13:35;;;;;;;;;;;;;;;8.83;80.96;98864.06;7364895;19;19957;-58
2022/01/08 10:18:45;;;;;;;;;;;;;;;8.86;81.07;98845.69;7359051;19;19921;-59
2022/01/08 10:21:13;;;;;;;;;;;;;;;8.88;81.27;98846.47;7361538;19;19921;-59
2022/01/08 10:23:41;;;;;;;;;;;;;;;8.88;80.80;98846.47;7364872;19;19915;-58
2022/01/08 10:26:11;;;;;;;;;;;;;;;8.90;80.87;98835.97;7366404;19;20644;-59
2022/01/08 10:28:39;;;;;;;;;;;;;;;8.90;81.12;98835.97;7367694;19;19918;-59
2022/01/08 10:31:27;;;;;;;;;;;;;;;8.89;80.89;98847.31;7361356;19;19919;-61
2022/01/08 10:34:06;;;;;;;;;;;;;;;8.88;80.61;98863.84;7354974;19;19940;-59
2022/01/08 10:36:33;;;;;;;;;;;;;;;8.84;80.33;98865.75;7365391;19;20747;-59
2022/01/08 10:39:12;;;;;;;;;;;;;;;8.83;80.46;98861.44;7364108;19;20297;-59
2022/01/08 10:41:42;;;;;;;;;;;;;;;8.83;80.75;98864.06;7363153;19;19926;-60
2022/01/08 10:44:17;;;;;;;;;;;;;;;8.82;80.95;98868.41;7355805;19;19918;-60
2022/01/08 10:47:03;;;;;;;;;;;;;;;8.82;80.62;98865.81;7364007;19;19974;-59
2022/01/08 10:49:29;;;;;;;;;;;;;;;8.81;80.45;98877.13;7364982;19;20593;-58
2022/01/08 10:51:55;;;;;;;;;;;;;;;8.80;80.62;98880.63;7350339;19;19994;-58
2022/01/08 10:54:24;;;;;;;;;;;;;;;8.80;80.47;98879.78;7360655;19;19939;-60
2022/01/08 10:56:51;;;;;;;;;;;;;;;8.79;80.86;98889.38;7363018;19;19927;-57
2022/01/08 10:59:21;;;;;;;;;;;;;;;8.83;81.18;98903.09;7364969;19;20030;-59
2022/01/08 11:01:47;;;;;;;;;;;;;;;8.94;81.80;98884.38;7355484;19;19925;-59
2022/01/08 11:04:16;;;;;;;;;;;;;;;8.99;81.78;98882.44;7359099;19;19911;-61
2022/01/08 11:06:48;;;;;;;;;;;;;;;9.20;81.80;98893.63;7363215;19;19925;-59
2022/01/08 11:09:14;;;;;;;;;;;;;;;9.28;81.27;98896.72;7360966;19;19919;-59
2022/01/08 11:11:40;;;;;;;;;;;;;;;9.33;80.90;98905.16;7362957;19;19922;-60
2022/01/08 11:14:08;;;;;;;;;;;;;;;9.36;81.14;98897.19;7357170;19;20284;-59
2022/01/08 11:16:36;;;;;;;;;;;;;;;9.44;81.06;98902.06;7362171;19;19943;-61
2022/01/08 11:19:02;;;;;;;;;;;;;;;9.57;81.50;98909.22;7359629;19;20009;-59
2022/01/08 11:21:29;;;;;;;;;;;;;;;9.77;81.69;98897.00;7354473;19;19922;-58
2022/01/08 11:23:57;;;;;;;;;;;;;;;10.01;82.08;98889.75;7359420;19;19922;-59
2022/01/08 11:26:22;;;;;;;;;;;;;;;10.24;81.73;98886.00;7359577;19;19922;-59
2022/01/08 11:28:48;;;;;;;;;;;;;;;10.48;81.38;98897.81;7351728;19;19914;-59
2022/01/08 11:31:15;;;;;;;;;;;;;;;10.71;81.07;98899.25;7359692;19;19929;-60
2022/01/08 11:33:44;;;;;;;;;;;;;;;10.98;80.78;98906.56;7360115;19;20499;-57
2022/01/08 11:36:11;;;;;;;;;;;;;;;11.22;80.40;98904.41;7366152;19;19939;-60
2022/01/08 11:38:37;;;;;;;;;;;;;;;11.38;79.79;98906.09;7368479;19;20340;-60
2022/01/08 11:41:02;;;;;;;;;;;;;;;11.56;79.60;98904.25;7363933;19;19926;-59
2022/01/08 11:43:29;;;;;;;;;;;;;;;11.74;78.74;98896.31;7370293;19;20376;-60
2022/01/08 11:45:59;;;;;;;;;;;;;;;11.87;78.81;98892.94;7369912;19;19930;-58
2022/01/08 11:48:28;;;;;;;;;;;;;;;12.01;78.18;98884.28;7362810;19;19982;-61
2022/01/08 11:50:59;;;;;;;;;;;;;;;12.17;77.81;98879.88;7352671;19;20344;-59
2022/01/08 11:53:29;;;;;;;;;;;;;;;12.31;77.01;98867.75;7310354;19;20466;-59
2022/01/08 11:55:59;;;;;;;;;;;;;;;12.40;76.24;98880.28;7299025;19;20002;-60
2022/01/08 11:58:30;;;;;;;;;;;;;;;12.48;75.62;98878.06;7324129;19;20319;-60
2022/01/08 12:00:59;;;;;;;;;;;;;;;12.53;75.62;98883.88;7318500;19;19918;-60
2022/01/08 12:03:32;;;;;;;;;;;;;;;12.57;75.58;98872.28;7352342;19;19923;-58
2022/01/08 12:05:58;;;;;;;;;;;;;;;12.63;75.20;98866.69;7367645;19;19928;-61
2022/01/08 12:08:45;;;;;;;;;;;;;;;12.56;74.71;98844.41;7368121;19;19945;-63
2022/01/08 12:11:11;;;;;;;;;;;;;;;12.71;74.66;98848.72;7266659;19;2004518;-59
2022/01/08 12:13:39;;;;;;;;;;;;;;;12.78;74.51;98843.97;7367762;19;19922;-60
2022/01/08 12:16:05;;;;;;;;;;;;;;;12.83;74.74;98857.63;7365325;19;19919;-60
2022/01/08 12:18:50;;;;;;;;;;;;;;;12.91;74.62;98859.75;7365072;19;19915;-60
2022/01/08 12:21:29;;;;;;;;;;;;;;;12.95;74.09;98856.00;7367598;19;19918;-59
2022/01/08 12:23:54;;;;;;;;;;;;;;;12.95;74.11;98864.69;7366972;19;20517;-59
2022/01/08 12:26:22;;;;;;;;;;;;;;;12.90;73.37;98863.31;7368603;19;19935;-58
2022/01/08 12:28:53;;;;;;;;;;;;;;;12.83;73.45;98859.41;7364286;19;19915;-60
2022/01/08 12:31:26;;;;;;;;;;;;;;;12.71;73.39;98856.56;7362936;19;20311;-61
2022/01/08 12:34:15;;;;;;;;;;;;;;;12.64;73.50;98852.66;7366603;19;19974;-58
2022/01/08 12:36:50;;;;;;;;;;;;;;;12.53;73.05;98849.84;7365121;19;20824;-58
2022/01/08 12:39:15;;;;;;;;;;;;;;;12.36;72.78;98837.75;7364113;19;19930;-61
2022/01/08 12:41:41;;;;;;;;;;;;;;;12.26;73.61;98833.16;7363148;19;19915;-60
2022/01/08 12:44:25;;;;;;;;;;;;;;;12.20;74.78;98819.50;7363835;19;20387;-60
2022/01/08 12:46:51;;;;;;;;;;;;;;;12.28;75.00;98818.22;7363681;19;19922;-60
2022/01/08 12:49:16;;;;;;;;;;;;;;;12.39;74.80;98826.25;7366079;19;19954;-58
2022/01/08 12:51:44;;;;;;;;;;;;;;;12.49;74.82;98837.88;7364796;19;19911;-57
2022/01/08 12:54:10;;;;;;;;;;;;;;;12.57;74.50;98826.91;7359483;19;20591;-60
2022/01/08 12:56:44;;;;;;;;;;;;;;;12.62;74.25;98825.72;7364911;19;19919;-58
2022/01/08 12:59:10;;;;;;;;;;;;;;;12.69;74.31;98831.41;7363339;19;19962;-58
2022/01/08 13:01:36;;;;;;;;;;;;;;;12.79;74.76;98829.09;7364935;19;19994;-58
2022/01/08 13:04:02;;;;;;;;;;;;;;;12.88;74.64;98841.63;7364262;19;19926;-59
2022/01/08 13:06:30;;;;;;;;;;;;;;;12.98;73.99;98845.34;7361034;19;19910;-61
2022/01/08 13:08:56;;;;;;;;;;;;;;;13.04;74.20;98842.34;7362842;19;19929;-57
2022/01/08 13:11:32;;;;;;;;;;;;;;;13.07;73.48;98846.53;7366485;19;19923;-60
2022/01/08 13:14:08;;;;;;;;;;;;;;;13.02;72.81;98861.69;7358172;19;19927;-58